Time;durP1;ratioP1;P1;durP2;ratioP2;P2;SDS_P1;SDS_P2;PMS_P1;PMS_P2;Temp;Humidity;BMP_temperature;BMP_pressure;BME280_temperature;BME280_humidity;BME280_pressure;Samples;Min_cycle;Max_cycle;Signal;HPM_P1;HPM_P2
2022/04/14 00:01:58;;;;;;;21.63;7.20;;;6.30;99.90;;;;;;5051858;28;20215;-66
2022/04/14 00:04:25;;;;;;;19.67;7.60;;;6.30;99.90;;;;;;5051687;28;20600;-66
2022/04/14 00:06:52;;;;;;;18.07;6.70;;;6.30;99.90;;;;;;5051466;28;20213;-65
2022/04/14 00:09:19;;;;;;;19.07;6.87;;;6.30;99.90;;;;;;5051839;28;20208;-65
2022/04/14 00:11:46;;;;;;;17.80;6.23;;;6.30;99.90;;;;;;5051436;28;20213;-65
2022/04/14 00:14:13;;;;;;;15.77;6.10;;;6.30;99.90;;;;;;5051399;28;20566;-66
2022/04/14 00:16:41;;;;;;;17.27;6.07;;;6.40;99.90;;;;;;5051690;28;20228;-65
2022/04/14 00:19:08;;;;;;;12.87;4.93;;;6.40;99.90;;;;;;5051170;28;20209;-66
2022/04/14 00:21:35;;;;;;;10.97;4.63;;;6.40;99.90;;;;;;5051577;28;20255;-66
2022/04/14 00:24:02;;;;;;;12.17;4.20;;;6.40;99.90;;;;;;5051160;28;20228;-67
2022/04/14 00:26:29;;;;;;;8.77;4.50;;;6.40;99.90;;;;;;5053920;28;20212;-65
2022/04/14 00:28:55;;;;;;;9.67;3.57;;;6.40;99.90;;;;;;5055085;28;20241;-65
2022/04/14 00:31:22;;;;;;;7.50;3.33;;;6.40;99.90;;;;;;5055417;28;20185;-66
2022/04/14 00:33:50;;;;;;;5.53;2.90;;;6.40;99.90;;;;;;5055163;28;20656;-65
2022/04/14 00:36:17;;;;;;;8.37;2.80;;;6.40;99.90;;;;;;5054970;28;20239;-66
2022/04/14 00:38:44;;;;;;;5.03;2.63;;;6.40;99.90;;;;;;5055298;28;20201;-66
2022/04/14 00:41:11;;;;;;;10.67;2.57;;;6.40;99.90;;;;;;5054981;28;20205;-66
2022/04/14 00:43:38;;;;;;;3.80;2.30;;;6.40;99.90;;;;;;5055082;28;20581;-64
2022/04/14 00:46:05;;;;;;;4.73;2.10;;;6.40;99.90;;;;;;5054958;28;20209;-66
2022/04/14 00:48:32;;;;;;;4.90;2.63;;;6.40;99.90;;;;;;5054803;28;20266;-67
2022/04/14 00:51:01;;;;;;;4.23;2.20;;;6.40;99.90;;;;;;5054864;28;20210;-66
2022/04/14 00:53:27;;;;;;;4.20;2.23;;;6.40;99.90;;;;;;5054866;28;20208;-65
2022/04/14 00:55:54;;;;;;;4.50;2.10;;;6.40;99.90;;;;;;5054668;28;20205;-65
2022/04/14 00:58:21;;;;;;;4.97;2.23;;;6.40;99.90;;;;;;5054505;28;20221;-65
2022/04/14 01:00:48;;;;;;;4.63;2.10;;;6.30;99.90;;;;;;5054703;28;20690;-66
2022/04/14 01:03:17;;;;;;;3.30;2.20;;;6.40;99.90;;;;;;5054544;28;20221;-65
2022/04/14 01:05:45;;;;;;;4.47;2.03;;;6.40;99.90;;;;;;5054346;28;20205;-65
2022/04/14 01:08:17;;;;;;;3.90;2.30;;;6.40;99.90;;;;;;5054679;28;20305;-66
2022/04/14 01:10:47;;;;;;;3.53;2.20;;;6.40;99.90;;;;;;5054633;28;20247;-65
2022/04/14 01:13:15;;;;;;;5.90;2.43;;;6.40;99.90;;;;;;5054332;28;20205;-66
2022/04/14 01:15:41;;;;;;;4.53;2.30;;;6.50;99.90;;;;;;5054507;28;20202;-65
2022/04/14 01:18:08;;;;;;;3.87;2.20;;;6.50;99.90;;;;;;5054627;28;20202;-65
2022/04/14 01:20:36;;;;;;;6.47;3.00;;;6.50;99.90;;;;;;5054547;28;20205;-66
2022/04/14 01:23:05;;;;;;;7.60;3.90;;;6.50;99.90;;;;;;5054228;28;20205;-65
2022/04/14 01:25:35;;;;;;;8.37;4.07;;;6.40;99.90;;;;;;5054415;28;20209;-65
2022/04/14 01:28:02;;;;;;;6.47;4.30;;;6.50;99.90;;;;;;5054163;28;20212;-66
2022/04/14 01:30:29;;;;;;;9.67;4.50;;;6.40;99.90;;;;;;5053875;28;20233;-66
2022/04/14 01:32:56;;;;;;;10.23;4.90;;;6.40;99.90;;;;;;5054225;28;20201;-66
2022/04/14 01:35:24;;;;;;;13.63;5.17;;;6.50;99.90;;;;;;5054177;28;20585;-65
2022/04/14 01:37:50;;;;;;;11.53;5.43;;;6.40;99.90;;;;;;5052981;28;20205;-66
2022/04/14 01:40:18;;;;;;;10.43;5.30;;;6.40;99.90;;;;;;5053905;28;20220;-66
2022/04/14 01:42:46;;;;;;;12.57;5.47;;;6.40;99.90;;;;;;5053885;28;20200;-67
2022/04/14 01:45:13;;;;;;;12.20;4.37;;;6.40;99.90;;;;;;5054035;28;20682;-66
2022/04/14 01:47:41;;;;;;;8.20;4.23;;;6.50;99.90;;;;;;5053824;28;20662;-67
2022/04/14 01:50:10;;;;;;;6.90;3.90;;;6.50;99.90;;;;;;5053951;28;20210;-66
2022/04/14 01:52:37;;;;;;;7.90;3.13;;;6.50;99.90;;;;;;5053822;28;20564;-67
2022/04/14 01:55:04;;;;;;;6.07;3.00;;;6.50;99.90;;;;;;5053857;28;20204;-66
2022/04/14 01:57:31;;;;;;;6.03;2.77;;;6.50;99.90;;;;;;5053732;28;20664;-66
2022/04/14 02:00:00;;;;;;;4.80;2.40;;;6.50;99.90;;;;;;5053601;28;20221;-66
2022/04/14 02:02:27;;;;;;;5.17;2.40;;;6.50;99.90;;;;;;5053679;28;20213;-66
2022/04/14 02:04:54;;;;;;;3.20;2.17;;;6.50;99.90;;;;;;5053177;28;20229;-66
2022/04/14 02:07:21;;;;;;;3.63;2.30;;;6.40;99.90;;;;;;5053798;28;20201;-65
2022/04/14 02:09:47;;;;;;;6.07;2.00;;;6.40;99.90;;;;;;5053150;28;20202;-66
2022/04/14 02:12:14;;;;;;;3.23;2.17;;;6.40;99.90;;;;;;5053258;28;20213;-65
2022/04/14 02:14:43;;;;;;;4.30;2.10;;;6.40;99.90;;;;;;5053466;28;20557;-66
2022/04/14 02:17:11;;;;;;;3.13;2.13;;;6.40;99.90;;;;;;5053401;28;20206;-66
2022/04/14 02:19:38;;;;;;;3.93;2.10;;;6.40;99.90;;;;;;5053036;28;20206;-67
2022/04/14 02:22:05;;;;;;;3.23;2.10;;;6.40;99.90;;;;;;5053189;28;20685;-66
2022/04/14 02:24:32;;;;;;;5.23;2.30;;;6.40;99.90;;;;;;5053245;28;20229;-67
2022/04/14 02:26:58;;;;;;;4.40;1.90;;;6.40;99.90;;;;;;5053298;28;20212;-68
2022/04/14 02:29:25;;;;;;;5.00;2.00;;;6.40;99.90;;;;;;5052864;28;20237;-67
2022/04/14 02:31:56;;;;;;;3.47;1.97;;;6.30;99.90;;;;;;5053047;28;20694;-66
2022/04/14 02:34:25;;;;;;;3.50;1.87;;;6.30;99.90;;;;;;5053189;28;20579;-66
2022/04/14 02:36:52;;;;;;;4.50;2.00;;;6.30;99.90;;;;;;5052931;28;20228;-66
2022/04/14 02:39:19;;;;;;;4.77;2.10;;;6.30;99.90;;;;;;5053169;28;20208;-66
2022/04/14 02:41:46;;;;;;;4.07;2.43;;;6.30;99.90;;;;;;5052812;28;20209;-67
2022/04/14 02:44:13;;;;;;;2.60;2.17;;;6.30;99.90;;;;;;5053010;28;20566;-65
2022/04/14 02:46:40;;;;;;;5.20;2.17;;;6.30;99.90;;;;;;5052725;28;20568;-67
2022/04/14 02:49:06;;;;;;;3.53;2.13;;;6.30;99.90;;;;;;5052526;28;20212;-67
2022/04/14 02:51:35;;;;;;;5.73;2.40;;;6.20;99.90;;;;;;5052664;28;20205;-67
2022/04/14 02:54:02;;;;;;;4.10;2.20;;;6.20;99.90;;;;;;5052452;28;20216;-66
2022/04/14 02:56:28;;;;;;;5.23;2.43;;;6.20;99.90;;;;;;5052516;28;20571;-66
2022/04/14 02:58:55;;;;;;;4.23;2.50;;;6.20;99.90;;;;;;5052493;28;20233;-66
2022/04/14 03:01:22;;;;;;;5.70;2.20;;;6.20;99.90;;;;;;5052479;28;20667;-66
2022/04/14 03:03:49;;;;;;;5.60;2.70;;;6.20;99.90;;;;;;5052348;28;20691;-66
2022/04/14 03:06:15;;;;;;;4.53;2.33;;;6.20;99.90;;;;;;5052314;28;20209;-64
2022/04/14 03:08:44;;;;;;;4.73;2.30;;;6.20;99.90;;;;;;5052046;28;20209;-66
2022/04/14 03:11:12;;;;;;;4.43;2.43;;;6.10;99.90;;;;;;5052416;28;20205;-66
2022/04/14 03:13:39;;;;;;;4.70;2.57;;;6.10;99.90;;;;;;5052171;28;20255;-66
2022/04/14 03:16:06;;;;;;;4.53;2.60;;;6.10;99.90;;;;;;5052468;28;20201;-66
2022/04/14 03:18:33;;;;;;;3.40;2.20;;;6.10;99.90;;;;;;5052018;28;20201;-66
2022/04/14 03:20:59;;;;;;;3.43;2.40;;;6.10;99.90;;;;;;5052094;28;20201;-66
2022/04/14 03:23:26;;;;;;;2.50;2.00;;;6.10;99.90;;;;;;5051923;28;20445;-66
2022/04/14 03:25:55;;;;;;;3.97;2.30;;;6.10;99.90;;;;;;5052025;28;20210;-66
2022/04/14 03:28:21;;;;;;;3.50;2.00;;;6.10;99.90;;;;;;5052321;28;20197;-67
2022/04/14 03:30:48;;;;;;;3.33;1.97;;;6.00;99.90;;;;;;5051673;28;20243;-66
2022/04/14 03:33:15;;;;;;;2.60;1.87;;;6.10;99.90;;;;;;5052163;28;20212;-65
2022/04/14 03:35:42;;;;;;;3.73;2.10;;;6.00;99.90;;;;;;5051511;28;20212;-67
2022/04/14 03:38:08;;;;;;;3.73;2.13;;;6.10;99.90;;;;;;5051783;28;20205;-66
2022/04/14 03:40:35;;;;;;;5.40;2.00;;;6.10;99.90;;;;;;5051969;28;20204;-67
2022/04/14 03:43:03;;;;;;;2.77;1.80;;;6.00;99.90;;;;;;5052213;28;20209;-66
2022/04/14 03:45:30;;;;;;;2.30;1.83;;;6.00;99.90;;;;;;5051753;28;20683;-66
2022/04/14 03:47:57;;;;;;;2.47;1.90;;;6.00;99.90;;;;;;5051930;28;20201;-67
2022/04/14 03:50:24;;;;;;;2.53;1.90;;;6.00;99.90;;;;;;5051826;28;20211;-66
2022/04/14 03:52:50;;;;;;;4.10;1.80;;;6.00;99.90;;;;;;5051671;28;20205;-67
2022/04/14 03:55:17;;;;;;;4.03;2.20;;;6.00;99.90;;;;;;5051944;28;20668;-65
2022/04/14 03:57:44;;;;;;;3.60;1.80;;;6.00;99.90;;;;;;5051683;28;20659;-66
2022/04/14 04:00:13;;;;;;;3.80;2.13;;;6.00;99.90;;;;;;5052262;28;20225;-67
2022/04/14 04:02:40;;;;;;;3.10;2.03;;;6.00;99.90;;;;;;5055765;28;20538;-67
2022/04/14 04:05:08;;;;;;;3.57;1.93;;;6.00;99.90;;;;;;5055857;28;20257;-66
2022/04/14 04:07:35;;;;;;;2.87;2.20;;;6.00;99.90;;;;;;5055640;28;20204;-65
2022/04/14 04:10:02;;;;;;;6.63;2.77;;;6.00;99.90;;;;;;5055519;28;20216;-66
2022/04/14 04:12:29;;;;;;;2.80;1.97;;;6.00;99.90;;;;;;5055799;28;20213;-65
2022/04/14 04:14:55;;;;;;;3.10;2.17;;;6.10;99.90;;;;;;5055909;28;20201;-66
2022/04/14 04:17:24;;;;;;;2.47;2.00;;;6.00;99.90;;;;;;5055788;28;20232;-67
2022/04/14 04:19:50;;;;;;;3.17;1.90;;;6.10;99.90;;;;;;5055558;28;20580;-66
2022/04/14 04:22:17;;;;;;;3.00;1.87;;;6.10;99.90;;;;;;5055651;28;20212;-64
2022/04/14 04:24:44;;;;;;;2.70;1.90;;;6.10;99.90;;;;;;5055462;28;20225;-66
2022/04/14 04:27:11;;;;;;;3.70;2.03;;;6.20;99.90;;;;;;5055600;28;20205;-66
2022/04/14 04:29:38;;;;;;;4.13;2.07;;;6.10;99.90;;;;;;5054966;28;20229;-65
2022/04/14 04:32:05;;;;;;;3.87;2.30;;;6.10;99.90;;;;;;5055353;28;20212;-66
2022/04/14 04:34:33;;;;;;;4.27;2.23;;;6.10;99.90;;;;;;5055206;28;20201;-67
2022/04/14 04:37:00;;;;;;;2.90;2.10;;;6.20;99.90;;;;;;5055309;28;20212;-67
2022/04/14 04:39:27;;;;;;;4.53;2.40;;;6.20;99.90;;;;;;5055076;28;20209;-65
2022/04/14 04:41:54;;;;;;;4.57;2.10;;;6.20;99.90;;;;;;5055187;28;20727;-65
2022/04/14 04:44:20;;;;;;;5.30;2.50;;;6.20;99.90;;;;;;5054739;28;20221;-67
2022/04/14 04:46:47;;;;;;;4.20;1.93;;;6.30;99.90;;;;;;5054799;28;20205;-66
2022/04/14 04:49:14;;;;;;;3.33;2.37;;;6.30;99.90;;;;;;5054626;28;20208;-66
2022/04/14 04:51:42;;;;;;;4.00;2.10;;;6.30;99.90;;;;;;5054616;28;20216;-67
2022/04/14 04:54:09;;;;;;;4.53;2.00;;;6.30;99.90;;;;;;5054936;28;20571;-67
2022/04/14 04:56:36;;;;;;;3.93;2.13;;;6.40;99.90;;;;;;5054851;28;20671;-65
2022/04/14 04:59:03;;;;;;;4.03;1.97;;;6.40;99.90;;;;;;5054777;28;20708;-65
2022/04/14 05:01:30;;;;;;;4.70;2.13;;;6.40;99.90;;;;;;5054387;28;20640;-66
2022/04/14 05:03:57;;;;;;;2.83;1.90;;;6.40;99.90;;;;;;5054451;28;20205;-65
2022/04/14 05:06:24;;;;;;;2.80;2.00;;;6.50;99.90;;;;;;5054350;28;20205;-66
2022/04/14 05:08:52;;;;;;;5.10;2.00;;;6.50;99.90;;;;;;5054706;28;20201;-66
2022/04/14 05:11:19;;;;;;;3.17;2.20;;;6.50;99.90;;;;;;5054392;28;20215;-67
2022/04/14 05:13:46;;;;;;;3.13;2.10;;;6.60;99.90;;;;;;5054191;28;20209;-67
2022/04/14 05:16:12;;;;;;;3.37;2.07;;;6.60;99.90;;;;;;5054291;28;20339;-67
2022/04/14 05:18:39;;;;;;;5.40;2.27;;;6.60;99.90;;;;;;5054463;28;20213;-67
2022/04/14 05:21:06;;;;;;;4.03;2.53;;;6.60;99.90;;;;;;5054536;28;20202;-67
2022/04/14 05:23:33;;;;;;;4.17;2.20;;;6.70;99.90;;;;;;5053934;28;20205;-67
2022/04/14 05:26:01;;;;;;;2.63;1.80;;;6.70;99.90;;;;;;5054106;28;20229;-66
2022/04/14 05:28:28;;;;;;;4.97;2.40;;;6.70;99.90;;;;;;5053741;28;20241;-66
2022/04/14 05:30:55;;;;;;;4.37;2.23;;;6.70;99.90;;;;;;5053792;28;20259;-68
2022/04/14 05:33:22;;;;;;;3.90;2.23;;;6.80;99.90;;;;;;5053929;28;20194;-67
2022/04/14 05:35:48;;;;;;;4.67;2.23;;;6.80;99.90;;;;;;5054156;28;20198;-67
2022/04/14 05:38:16;;;;;;;6.87;2.20;;;6.80;99.90;;;;;;5053530;28;20209;-67
2022/04/14 05:40:45;;;;;;;3.00;2.10;;;6.90;99.90;;;;;;5053721;28;20404;-66
2022/04/14 05:43:16;;;;;;;2.50;2.03;;;6.90;99.90;;;;;;5053987;28;20208;-68
2022/04/14 05:45:44;;;;;;;3.87;2.17;;;6.90;99.90;;;;;;5053875;28;20236;-67
2022/04/14 05:48:13;;;;;;;3.10;2.20;;;6.80;99.90;;;;;;5053774;28;20552;-65
2022/04/14 05:50:40;;;;;;;3.40;1.90;;;6.80;99.90;;;;;;5053709;28;20742;-67
2022/04/14 05:53:07;;;;;;;4.10;2.27;;;6.80;99.90;;;;;;5053669;28;20212;-67
2022/04/14 05:55:34;;;;;;;3.77;2.00;;;6.80;99.90;;;;;;5053558;28;20267;-65
2022/04/14 05:58:00;;;;;;;4.60;2.00;;;6.90;99.90;;;;;;5053785;28;20244;-66
2022/04/14 06:00:29;;;;;;;3.40;2.07;;;6.90;99.90;;;;;;5053800;28;20513;-66
2022/04/14 06:02:56;;;;;;;3.80;2.17;;;7.00;99.90;;;;;;5053708;28;20284;-66
2022/04/14 06:05:25;;;;;;;7.50;2.20;;;7.00;99.90;;;;;;5053213;28;20632;-66
2022/04/14 06:07:51;;;;;;;2.73;2.30;;;7.00;99.90;;;;;;5053832;28;20202;-67
2022/04/14 06:10:18;;;;;;;3.43;2.23;;;7.00;99.90;;;;;;5053687;28;20202;-67
2022/04/14 06:12:45;;;;;;;3.07;2.03;;;7.00;99.90;;;;;;5054121;28;20288;-70
2022/04/14 06:15:13;;;;;;;2.83;2.00;;;7.10;99.90;;;;;;5053679;28;20205;-68
2022/04/14 06:17:42;;;;;;;3.63;2.10;;;7.10;99.90;;;;;;5054071;28;20210;-66
2022/04/14 06:20:09;;;;;;;3.57;2.00;;;7.10;99.90;;;;;;5053183;28;20205;-66
2022/04/14 06:22:38;;;;;;;4.57;2.57;;;7.10;99.90;;;;;;5053004;28;20213;-68
2022/04/14 06:25:12;;;;;;;3.40;2.20;;;7.00;99.90;;;;;;5052621;28;20225;-67
2022/04/14 06:27:39;;;;;;;3.13;2.03;;;7.10;99.90;;;;;;5053445;28;20605;-66
2022/04/14 06:30:08;;;;;;;5.27;2.30;;;7.10;99.90;;;;;;5052636;28;20238;-67
2022/04/14 06:32:34;;;;;;;5.27;2.10;;;7.00;99.90;;;;;;5051601;28;20208;-66
2022/04/14 06:35:03;;;;;;;3.83;2.10;;;7.10;99.90;;;;;;5052671;28;20208;-66
2022/04/14 06:37:29;;;;;;;5.77;2.27;;;7.10;99.90;;;;;;5053071;28;20240;-66
2022/04/14 06:39:56;;;;;;;3.33;2.00;;;7.10;99.90;;;;;;5052865;28;20205;-66
2022/04/14 06:42:23;;;;;;;7.87;2.10;;;7.10;99.90;;;;;;5053074;28;20205;-67
2022/04/14 06:44:50;;;;;;;4.63;2.10;;;7.00;99.90;;;;;;5052835;28;20229;-66
2022/04/14 06:47:16;;;;;;;3.30;2.07;;;7.00;99.90;;;;;;5052459;28;20205;-66
2022/04/14 06:49:43;;;;;;;4.73;2.33;;;7.00;99.90;;;;;;5052500;28;20205;-66
2022/04/14 06:52:11;;;;;;;4.57;2.30;;;7.10;99.90;;;;;;5052794;28;20231;-66
2022/04/14 06:54:38;;;;;;;3.83;2.20;;;7.20;99.90;;;;;;5052687;28;20202;-65
2022/04/14 06:57:06;;;;;;;3.03;2.00;;;7.30;99.90;;;;;;5052477;28;20232;-66
2022/04/14 06:59:32;;;;;;;6.37;2.10;;;7.30;99.90;;;;;;5052456;28;20703;-67
2022/04/14 07:01:59;;;;;;;4.53;2.30;;;7.30;99.90;;;;;;5052410;28;20201;-66
2022/04/14 07:04:27;;;;;;;6.70;2.40;;;7.40;99.90;;;;;;5052423;28;20205;-67
2022/04/14 07:06:53;;;;;;;4.60;2.20;;;7.40;99.90;;;;;;5052534;28;20229;-66
2022/04/14 07:09:23;;;;;;;7.57;2.77;;;7.40;99.90;;;;;;5052478;28;20205;-67
2022/04/14 07:11:50;;;;;;;3.57;2.30;;;7.40;99.90;;;;;;5052359;28;20209;-66
2022/04/14 07:14:19;;;;;;;3.33;2.13;;;7.50;99.90;;;;;;5052227;28;20206;-68
2022/04/14 07:16:45;;;;;;;4.43;2.50;;;7.50;99.90;;;;;;5052395;28;20657;-68
2022/04/14 07:19:12;;;;;;;3.50;2.30;;;7.60;99.90;;;;;;5052097;28;20576;-67
2022/04/14 07:21:39;;;;;;;3.60;2.47;;;7.60;99.90;;;;;;5052269;28;20678;-67
2022/04/14 07:24:07;;;;;;;3.90;2.43;;;7.70;99.90;;;;;;5051976;28;20202;-68
2022/04/14 07:26:36;;;;;;;2.83;1.90;;;7.70;99.90;;;;;;5051765;28;20225;-67
2022/04/14 07:29:03;;;;;;;5.50;2.10;;;7.80;99.90;;;;;;5051403;28;20237;-67
2022/04/14 07:31:31;;;;;;;4.17;1.90;;;7.70;99.90;;;;;;5052290;28;20735;-66
2022/04/14 07:33:58;;;;;;;3.53;2.40;;;7.80;99.90;;;;;;5051966;28;20284;-66
2022/04/14 07:36:26;;;;;;;4.83;2.60;;;7.90;99.90;;;;;;5051401;28;20204;-66
2022/04/14 07:38:52;;;;;;;5.50;2.40;;;7.80;99.90;;;;;;5051648;28;20217;-68
2022/04/14 07:41:19;;;;;;;4.13;2.10;;;7.90;99.90;;;;;;5051991;28;20537;-67
2022/04/14 07:43:47;;;;;;;5.70;2.20;;;7.90;99.90;;;;;;5051765;28;20220;-66
2022/04/14 07:46:14;;;;;;;4.10;2.10;;;8.00;99.90;;;;;;5052006;28;20221;-66
2022/04/14 07:48:41;;;;;;;4.40;2.00;;;8.00;99.90;;;;;;5051566;28;20219;-66
2022/04/14 07:51:08;;;;;;;3.07;1.90;;;8.10;99.90;;;;;;5051300;28;20229;-67
2022/04/14 07:53:37;;;;;;;5.13;2.27;;;8.00;99.90;;;;;;5051558;28;20213;-66
2022/04/14 07:56:05;;;;;;;3.00;2.20;;;8.00;99.90;;;;;;5051742;28;20204;-67
2022/04/14 07:58:33;;;;;;;3.47;2.10;;;8.10;99.90;;;;;;5052028;28;20232;-65
2022/04/14 08:01:01;;;;;;;4.43;2.23;;;8.10;99.90;;;;;;5053655;28;20248;-66
2022/04/14 08:03:28;;;;;;;5.17;2.10;;;8.20;99.90;;;;;;5052711;28;20209;-66
2022/04/14 08:05:55;;;;;;;4.53;2.00;;;8.20;99.90;;;;;;5051853;28;20227;-66
2022/04/14 08:08:23;;;;;;;3.37;2.20;;;8.30;99.90;;;;;;5051558;28;20209;-65
2022/04/14 08:10:51;;;;;;;8.50;5.30;;;8.30;99.90;;;;;;5051339;28;20213;-68
2022/04/14 08:13:19;;;;;;;6.50;2.80;;;8.30;99.90;;;;;;5051619;28;20205;-68
2022/04/14 08:15:46;;;;;;;3.40;2.00;;;8.40;99.90;;;;;;5051490;28;20664;-67
2022/04/14 08:18:14;;;;;;;5.07;2.10;;;8.40;99.90;;;;;;5051282;28;20255;-66
2022/04/14 08:20:41;;;;;;;5.77;3.10;;;8.30;99.90;;;;;;5051644;28;20251;-66
2022/04/14 08:23:12;;;;;;;4.13;2.40;;;8.30;99.90;;;;;;5051428;28;20206;-65
2022/04/14 08:25:39;;;;;;;4.67;2.10;;;8.30;99.90;;;;;;5051444;28;20206;-66
2022/04/14 08:28:08;;;;;;;2.80;1.97;;;8.40;99.90;;;;;;5051023;28;20209;-65
2022/04/14 08:30:37;;;;;;;3.20;1.97;;;8.40;99.90;;;;;;5051069;28;20287;-67
2022/04/14 08:33:06;;;;;;;5.93;2.30;;;8.50;99.90;;;;;;5051318;28;20209;-66
2022/04/14 08:35:35;;;;;;;3.00;1.97;;;8.50;99.90;;;;;;5051540;28;20202;-65
2022/04/14 08:38:06;;;;;;;3.50;2.30;;;8.60;99.90;;;;;;5051167;28;20222;-66
2022/04/14 08:40:37;;;;;;;2.00;1.60;;;8.60;99.90;;;;;;5051367;28;20571;-66
2022/04/14 08:43:06;;;;;;;3.37;1.80;;;8.70;99.90;;;;;;5051411;28;20197;-66
2022/04/14 08:45:34;;;;;;;2.77;1.93;;;8.60;99.90;;;;;;5051028;28;20229;-67
2022/04/14 08:48:02;;;;;;;4.63;1.90;;;8.60;99.90;;;;;;5054465;28;20209;-66
2022/04/14 08:50:30;;;;;;;4.97;2.07;;;8.70;99.90;;;;;;5055030;28;20205;-66
2022/04/14 08:52:58;;;;;;;4.80;2.27;;;8.80;99.90;;;;;;5054602;28;20216;-65
2022/04/14 08:55:25;;;;;;;3.27;2.00;;;8.80;99.90;;;;;;5054754;28;20212;-66
2022/04/14 08:57:53;;;;;;;3.50;2.00;;;8.90;99.90;;;;;;5054778;28;20231;-66
2022/04/14 09:00:20;;;;;;;4.20;1.70;;;8.90;99.90;;;;;;5054481;28;20209;-67
2022/04/14 09:02:49;;;;;;;5.87;2.00;;;9.00;99.90;;;;;;5054150;28;20206;-66
2022/04/14 09:05:17;;;;;;;3.27;1.90;;;9.00;99.90;;;;;;5054634;28;20572;-67
2022/04/14 09:07:48;;;;;;;4.23;1.90;;;9.00;99.90;;;;;;5054711;28;20217;-65
2022/04/14 09:10:16;;;;;;;3.57;1.93;;;9.00;99.90;;;;;;5054456;28;20209;-66
2022/04/14 09:12:43;;;;;;;3.90;1.93;;;9.00;99.90;;;;;;5054523;28;20216;-66
2022/04/14 09:15:11;;;;;;;4.70;1.73;;;9.00;99.90;;;;;;5054213;28;20205;-65
2022/04/14 09:17:38;;;;;;;3.53;2.00;;;9.10;99.90;;;;;;5054072;28;20201;-66
2022/04/14 09:20:31;;;;;;;2.77;2.20;;;9.00;99.90;;;;;;5054490;28;20228;-67
2022/04/14 09:23:20;;;;;;;3.60;1.70;;;9.00;99.90;;;;;;5054343;28;20546;-66
2022/04/14 09:25:50;;;;;;;2.33;1.70;;;9.10;99.90;;;;;;5054039;28;20218;-67
2022/04/14 09:28:18;;;;;;;6.90;2.03;;;9.20;99.90;;;;;;5054653;28;20216;-67
2022/04/14 09:31:05;;;;;;;3.87;1.90;;;9.30;99.90;;;;;;5053832;28;20248;-66
2022/04/14 09:33:33;;;;;;;2.03;1.60;;;9.40;99.90;;;;;;5054466;28;20203;-67
2022/04/14 09:36:09;;;;;;;11.07;2.10;;;9.40;99.90;;;;;;5054156;28;20209;-66
2022/04/14 09:38:58;;;;;;;3.83;1.60;;;9.50;99.90;;;;;;5054071;28;20633;-67
2022/04/14 09:41:44;;;;;;;3.43;1.43;;;9.60;99.90;;;;;;5054053;28;20190;-66
2022/04/14 09:44:12;;;;;;;2.67;1.60;;;9.70;99.90;;;;;;5054135;28;20194;-65
2022/04/14 09:46:43;;;;;;;2.30;1.67;;;9.80;99.90;;;;;;5053616;28;20225;-67
2022/04/14 09:49:11;;;;;;;2.30;1.63;;;9.90;99.90;;;;;;5053934;28;20194;-67
2022/04/14 09:51:39;;;;;;;3.90;1.47;;;10.00;99.90;;;;;;5053701;28;20205;-67
2022/04/14 09:54:15;;;;;;;1.60;1.40;;;10.10;99.90;;;;;;5053553;28;20232;-66
2022/04/14 09:56:49;;;;;;;4.07;1.70;;;10.20;99.90;;;;;;5054109;28;20197;-68
2022/04/14 09:59:17;;;;;;;3.47;1.60;;;10.30;99.90;;;;;;5053002;28;20316;-64
2022/04/14 10:01:45;;;;;;;5.80;2.03;;;10.40;99.90;;;;;;5053531;28;20216;-65
2022/04/14 10:04:33;;;;;;;5.37;2.00;;;10.50;99.90;;;;;;5053979;28;20660;-67
2022/04/14 10:07:08;;;;;;;3.20;1.70;;;10.60;99.90;;;;;;5053607;28;20233;-67
2022/04/14 10:09:38;;;;;;;4.70;1.67;;;10.70;99.90;;;;;;5053692;28;20336;-65
2022/04/14 10:12:30;;;;;;;3.40;1.67;;;10.90;99.90;;;;;;5053637;28;20615;-67
2022/04/14 10:15:09;;;;;;;1.70;1.53;;;11.00;99.90;;;;;;5053575;28;20205;-66
2022/04/14 10:17:38;;;;;;;3.03;1.80;;;11.10;99.90;;;;;;5053141;28;20201;-67
2022/04/14 10:20:07;;;;;;;3.37;1.87;;;11.10;99.90;;;;;;5052959;28;20300;-65
2022/04/14 10:22:35;;;;;;;8.90;2.30;;;11.30;99.90;;;;;;5052931;28;20209;-67
2022/04/14 10:25:03;;;;;;;3.97;1.80;;;11.40;99.90;;;;;;5053564;28;20714;-67
2022/04/14 10:27:33;;;;;;;3.70;2.10;;;11.60;99.90;;;;;;5053070;28;20225;-66
2022/04/14 10:30:00;;;;;;;6.10;1.90;;;11.70;99.90;;;;;;5053348;28;20236;-67
2022/04/14 10:32:27;;;;;;;3.87;2.00;;;11.80;99.70;;;;;;5053655;28;20216;-66
2022/04/14 10:34:56;;;;;;;3.27;1.70;;;11.80;97.50;;;;;;5053118;28;20209;-67
2022/04/14 10:37:29;;;;;;;5.63;2.10;;;11.80;97.20;;;;;;5053058;28;20236;-66
2022/04/14 10:39:56;;;;;;;10.13;2.60;;;11.90;95.80;;;;;;5052962;28;20193;-67
2022/04/14 10:42:26;;;;;;;8.47;2.37;;;12.00;95.80;;;;;;5052934;28;20206;-67
2022/04/14 10:44:55;;;;;;;6.00;2.60;;;12.10;94.20;;;;;;5052955;28;20205;-69
2022/04/14 10:47:54;;;;;;;3.97;2.10;;;12.10;93.50;;;;;;5052786;28;20332;-68
2022/04/14 10:50:22;;;;;;;6.20;2.20;;;12.30;93.40;;;;;;5053875;28;20300;-70
2022/04/14 10:53:03;;;;;;;9.20;2.37;;;12.30;90.80;;;;;;5052679;28;20284;-67
2022/04/14 10:55:38;;;;;;;5.23;2.93;;;12.40;91.30;;;;;;5052592;28;20196;-65
2022/04/14 10:58:05;;;;;;;5.90;2.57;;;12.40;90.80;;;;;;5052711;28;20221;-67
2022/04/14 11:00:39;;;;;;;3.90;2.30;;;12.50;92.00;;;;;;5053240;28;20586;-68
2022/04/14 11:03:08;;;;;;;4.40;2.23;;;12.50;92.50;;;;;;5053205;28;20563;-66
2022/04/14 11:05:43;;;;;;;4.73;2.03;;;12.50;93.40;;;;;;5052043;28;20217;-69
2022/04/14 11:08:24;;;;;;;4.00;2.10;;;12.60;92.10;;;;;;5053006;28;20259;-70
2022/04/14 11:11:11;;;;;;;5.07;2.30;;;12.60;92.00;;;;;;5053185;28;20205;-71
2022/04/14 11:14:06;;;;;;;25.97;3.60;;;12.60;92.30;;;;;;5053208;28;20201;-67
2022/04/14 11:16:48;;;;;;;3.53;2.00;;;12.70;91.70;;;;;;5053014;28;20215;-71
2022/04/14 11:19:25;;;;;;;5.70;2.30;;;12.70;90.70;;;;;;5053109;28;20217;-69
2022/04/14 11:22:08;;;;;;;5.47;2.30;;;12.70;90.30;;;;;;5052719;28;20224;-68
2022/04/14 11:24:44;;;;;;;4.33;2.10;;;12.70;90.60;;;;;;5052179;28;20267;-67
2022/04/14 11:27:15;;;;;;;10.33;2.80;;;12.80;90.80;;;;;;5051950;28;20435;-67
2022/04/14 11:29:44;;;;;;;7.63;2.77;;;12.80;90.50;;;;;;5051743;28;20244;-67
2022/04/14 11:32:14;;;;;;;7.27;2.90;;;12.80;90.80;;;;;;5051816;28;20259;-66
2022/04/14 11:34:42;;;;;;;5.90;3.17;;;12.90;90.40;;;;;;5051735;28;20267;-69
2022/04/14 11:37:40;;;;;;;11.00;3.43;;;12.90;89.10;;;;;;5052451;28;20221;-67
2022/04/14 11:40:17;;;;;;;8.40;3.23;;;12.90;89.40;;;;;;5051885;28;20201;-67
2022/04/14 11:42:47;;;;;;;8.60;3.37;;;13.00;87.90;;;;;;5051815;28;20189;-65
2022/04/14 11:45:15;;;;;;;11.27;3.37;;;13.00;88.50;;;;;;5052088;28;20281;-68
2022/04/14 11:47:43;;;;;;;8.77;3.60;;;13.10;89.20;;;;;;5052525;28;20286;-67
2022/04/14 11:50:10;;;;;;;7.97;3.30;;;13.10;89.70;;;;;;5051938;28;20209;-66
2022/04/14 11:52:38;;;;;;;11.57;3.97;;;13.10;90.00;;;;;;5051622;28;20705;-66
2022/04/14 11:55:06;;;;;;;7.47;3.30;;;13.20;90.10;;;;;;5051548;28;20209;-66
2022/04/14 11:57:37;;;;;;;8.27;3.47;;;13.30;87.10;;;;;;5050950;28;20221;-66
2022/04/14 12:00:12;;;;;;;6.87;2.87;;;13.30;86.30;;;;;;5051824;28;20640;-66
2022/04/14 12:02:39;;;;;;;7.90;2.43;;;13.40;87.30;;;;;;5051379;28;20205;-65
2022/04/14 12:05:08;;;;;;;4.10;2.30;;;13.50;87.40;;;;;;5051747;28;20554;-66
2022/04/14 12:07:35;;;;;;;6.50;3.10;;;13.50;86.30;;;;;;5051480;28;20267;-66
2022/04/14 12:10:05;;;;;;;7.67;3.00;;;13.60;87.90;;;;;;5051685;28;20259;-66
2022/04/14 12:12:34;;;;;;;7.80;2.83;;;13.60;89.80;;;;;;5051101;28;20213;-66
2022/04/14 12:15:01;;;;;;;9.27;3.13;;;13.60;88.00;;;;;;5051679;28;20569;-68
2022/04/14 12:17:30;;;;;;;7.63;3.20;;;13.70;87.00;;;;;;5051519;28;20197;-66
2022/04/14 12:19:59;;;;;;;6.07;2.90;;;13.70;86.60;;;;;;5051211;28;20209;-67
2022/04/14 12:22:29;;;;;;;6.77;2.37;;;13.70;87.30;;;;;;5054258;28;20221;-66
2022/04/14 12:24:59;;;;;;;5.97;2.70;;;13.70;86.60;;;;;;5055486;28;20193;-67
2022/04/14 12:27:29;;;;;;;5.63;2.63;;;13.70;86.30;;;;;;5055524;28;20590;-68
2022/04/14 12:29:58;;;;;;;6.30;2.97;;;13.70;85.80;;;;;;5055664;28;20249;-66
2022/04/14 12:32:26;;;;;;;11.57;3.43;;;13.70;87.00;;;;;;5055205;28;20635;-65
2022/04/14 12:34:53;;;;;;;8.17;3.07;;;13.70;86.60;;;;;;5055486;28;20676;-66
2022/04/14 12:37:20;;;;;;;9.20;2.87;;;13.80;86.30;;;;;;5055674;28;20553;-68
2022/04/14 12:39:59;;;;;;;5.10;2.63;;;13.80;86.80;;;;;;5055415;28;20659;-67
2022/04/14 12:42:28;;;;;;;8.07;2.90;;;13.80;85.30;;;;;;5055240;28;20208;-66
2022/04/14 12:45:01;;;;;;;8.83;3.10;;;13.90;85.50;;;;;;5054782;28;20205;-66
2022/04/14 12:47:29;;;;;;;5.87;3.07;;;13.90;85.80;;;;;;5054655;28;20219;-66
2022/04/14 12:49:57;;;;;;;6.60;2.90;;;14.00;85.10;;;;;;5054907;28;20209;-67
2022/04/14 12:52:24;;;;;;;5.90;2.67;;;14.00;85.60;;;;;;5054977;28;20205;-66
2022/04/14 12:54:52;;;;;;;8.20;3.40;;;14.00;85.70;;;;;;5054923;28;20201;-65
2022/04/14 12:57:23;;;;;;;5.70;2.47;;;14.00;84.90;;;;;;5054684;28;20717;-67
2022/04/14 13:00:10;;;;;;;4.10;2.00;;;14.00;84.90;;;;;;5054787;28;20190;-68
2022/04/14 13:02:38;;;;;;;6.67;2.53;;;14.10;82.20;;;;;;5054477;28;20209;-67